Flight Track Log - Related Links

Times and Time Zones

All times are in EDT time to prevent confusion due to time zone crossing. See the UPS2932 flight status page for this flight to view local times or setup timezone preferences in your user account.

Time Position Orientation Groundspeed Altitude Reporting Facility
EDT Latitude Longitude Course Direction KTS MPH feet Rate Location/Type
Thu 04:12:53 PM 33.8430 -81.3730 260° West 283 326 9,300  Level FlightAware ADS-B
Thu 04:13:33 PM 33.8320 -81.4360 258° West 303 349 10,700 1,725 Climbing FlightAware ADS-B
Thu 04:14:13 PM 33.8220 -81.4930 258° West 342 394 11,600 1,906 Climbing FlightAware ADS-B
Thu 04:14:58 PM 33.8070 -81.5790 258° West 378 435 13,400 2,965 Climbing FlightAware ADS-B
Thu 04:15:38 PM 33.7920 -81.6720 259° West 389 448 15,800 3,375 Climbing FlightAware ADS-B
Thu 04:16:18 PM 33.7800 -81.7560 260° West 398 458 17,900 2,965 Climbing FlightAware ADS-B
Thu 04:17:03 PM 33.7860 -81.8600 274° West 410 472 20,000 2,682 Climbing FlightAware ADS-B
Thu 04:17:43 PM 33.7910 -81.9500 274° West 420 483 21,700 2,118 Climbing FlightAware ADS-B
Thu 04:18:28 PM 33.7900 -82.0590 269° West 431 496 23,000 918 Climbing FlightAware ADS-B
Thu 04:19:08 PM 33.7850 -82.1540 266° West 429 494 23,000 1,200 Level FlightAware ADS-B
Thu 04:19:48 PM 33.7790 -82.2490 266° West 431 496 24,600 2,259 Climbing FlightAware ADS-B
Thu 04:20:33 PM 33.7720 -82.3560 266° West 439 505 26,200 2,118 Climbing FlightAware ADS-B
Thu 04:21:13 PM 33.7660 -82.4530 266° West 446 513 27,600 2,175 Climbing FlightAware ADS-B
Thu 04:21:53 PM 33.7600 -82.5550 266° West 449 517 29,100 2,188 Climbing FlightAware ADS-B
Thu 04:22:38 PM 33.7540 -82.6580 266° West 447 514 30,700 1,933 Climbing FlightAware ADS-B
Thu 04:23:23 PM 33.7460 -82.7730 265° West 433 498 32,000 918 Climbing FlightAware ADS-B
Thu 04:24:03 PM 33.7400 -82.8720 266° West 427 491 32,000 424 Level FlightAware ADS-B
Thu 04:24:48 PM 33.7330 -82.9760 265° West 432 497 32,600 975 Climbing FlightAware ADS-B
Thu 04:25:23 PM 33.7280 -83.0580 266° West 441 507 33,300 1,500 Climbing FlightAware ADS-B
Thu 04:26:08 PM 33.7210 -83.1700 266° West 438 504 34,600 1,667 Climbing FlightAware ADS-B
Thu 04:26:53 PM 33.7130 -83.2820 265° West 434 499 35,800 1,412 Climbing FlightAware ADS-B
Thu 04:27:33 PM 33.7060 -83.3770 265° West 432 497 36,600 1,200 Climbing FlightAware ADS-B
Thu 04:28:13 PM 33.7010 -83.4890 267° West 429 494 37,400 988 Climbing FlightAware ADS-B
Thu 04:28:58 PM 33.6920 -83.5800 263° West 423 487 38,000 424 Climbing FlightAware ADS-B
Thu 04:29:38 PM 33.6860 -83.6680 265° West 418 481 38,000  Level FlightAware ADS-B
Thu 04:30:18 PM 33.6790 -83.7660 265° West 417 480 38,000  Level FlightAware ADS-B
Thu 04:31:03 PM 33.6720 -83.8670 265° West 416 479 38,000  Level FlightAware ADS-B
Thu 04:31:47 PM 33.6641 -83.9717 265° West 415 478 38,000  Level FlightAware ADS-B
Thu 04:32:28 PM 33.6580 -84.0590 265° West 416 479 38,000  Level FlightAware ADS-B
Thu 04:32:44 PM 33.6543 -84.1024 264° West 416 479 38,000  Level FlightAware ADS-B
Thu 04:33:15 PM 33.6488 -84.1757 265° West 418 481 38,000  Level FlightAware ADS-B
Thu 04:33:46 PM 33.6435 -84.2464 265° West 419 482 38,000  Level FlightAware ADS-B
Thu 04:34:31 PM 33.6355 -84.3507 265° West 419 482 38,000  Level FlightAware ADS-B
Thu 04:35:01 PM 33.6309 -84.4204 265° West 413 475 38,000  Level FlightAware ADS-B
Thu 04:35:53 PM 33.6315 -84.5358 270° West 399 459 38,000  Level FlightAware ADS-B
Thu 04:36:26 PM 33.6335 -84.6107 272° West 399 459 38,000  Level FlightAware ADS-B
Thu 04:37:13 PM 33.6362 -84.7158 272° West 405 466 38,000  Level FlightAware ADS-B
Thu 04:37:45 PM 33.6381 -84.7884 272° West 417 480 38,000  Level FlightAware ADS-B
Thu 04:38:24 PM 33.6402 -84.8796 272° West 423 487 38,000  Level FlightAware ADS-B
Thu 04:38:55 PM 33.6418 -84.9517 272° West 420 483 38,000  Level FlightAware ADS-B
Thu 04:39:28 PM 33.6430 -85.0170 271° West 417 480 38,000  Level FlightAware ADS-B
Thu 04:39:55 PM 33.6447 -85.0920 272° West 416 479 38,000  Level FlightAware ADS-B
Thu 04:40:31 PM 33.6466 -85.1745 272° West 415 478 38,000  Level FlightAware ADS-B
Thu 04:41:01 PM 33.6479 -85.2422 271° West 398 458 38,000  Level FlightAware ADS-B
Thu 04:41:32 PM 33.6492 -85.3078 271° West 391 450 38,000  Level FlightAware ADS-B
Thu 04:42:12 PM 33.6509 -85.3963 271° West 388 447 38,000  Level FlightAware ADS-B
Thu 04:42:45 PM 33.6523 -85.4658 271° West 390 449 38,000  Level FlightAware ADS-B
Thu 04:43:33 PM 33.6530 -85.5520 271° West 390 449 38,000  Level FlightAware ADS-B
Thu 04:43:46 PM 33.6546 -85.5981 272° West 391 450 38,000  Level FlightAware ADS-B
Thu 04:44:22 PM 33.6560 -85.6782 271° West 392 451 38,000  Level FlightAware ADS-B
Thu 04:44:59 PM 33.6573 -85.7585 271° West 394 453 38,000  Level FlightAware ADS-B
Thu 04:46:08 PM 33.6580 -85.8850 270° West 396 456 38,000  Level FlightAware ADS-B
Thu 04:46:48 PM 33.6580 -85.9600 270° West 396 456 38,000  Level FlightAware ADS-B
Thu 04:47:38 PM 33.6580 -86.0540 270° West 396 456 38,000  Level FlightAware ADS-B
Thu 04:48:07 PM 33.6631 -86.1746 273° West 403 464 38,000  Level FlightAware ADS-B
Thu 04:48:38 PM 33.6640 -86.2446 271° West 403 464 38,000  Level FlightAware ADS-B
Thu 04:49:28 PM 33.6654 -86.3568 271° West 403 464 38,000  Level FlightAware ADS-B
Thu 04:52:38 PM 33.6690 -86.7680 271° West 38,000  Level FlightAware ADS-B
Thu 04:53:48 PM 33.6670 -86.9230 269° West 38,000  Level FlightAware ADS-B
Thu 04:55:41 PM 33.6372 -87.1761 269° West 395 455 38,000  Level Memphis Center
Thu 04:56:41 PM 33.6239 -87.3064 263° West 395 455 38,000  Level Memphis Center
Thu 04:57:41 PM 33.6081 -87.4364 262° West 395 455 38,000  Level Memphis Center
Thu 04:58:41 PM 33.5944 -87.5642 263° West 395 455 38,000  Level Memphis Center
Thu 04:59:41 PM 33.5806 -87.6917 263° West 395 455 38,000  Level Memphis Center
Thu 05:00:41 PM 33.5664 -87.8192 262° West 395 455 38,000  Level Memphis Center
Thu 05:01:41 PM 33.5503 -87.9494 262° West 390 449 38,000  Level Memphis Center
Thu 05:02:41 PM 33.5339 -88.0769 261° West 390 449 38,000  Level Memphis Center
Thu 05:03:41 PM 33.5233 -88.1794 263° West 390 449 38,000  Level Memphis Center
Thu 05:04:41 PM 33.5111 -88.3267 264° West 396 456 38,000  Level Memphis Center
Thu 05:05:41 PM 33.4944 -88.4567 261° West 396 456 38,000  Level Memphis Center
Thu 05:06:41 PM 33.4836 -88.5814 264° West 396 456 38,000  Level Memphis Center
Thu 05:07:41 PM 33.4853 -88.7008 271° West 377 434 38,000  Level Memphis Center
Thu 05:08:41 PM 33.4847 -88.8206 270° West 367 422 38,000  Level Memphis Center
Thu 05:09:41 PM 33.4844 -88.9575 270° West 367 422 38,000  Level Memphis Center
Thu 05:10:41 PM 33.4897 -89.0794 273° West 367 422 38,000  Level Memphis Center
Thu 05:11:41 PM 33.5119 -89.2036 282° West 367 422 38,000  Level Memphis Center
Thu 05:12:41 PM 33.5339 -89.3256 282° West 367 422 38,000  Level Memphis Center
Thu 05:13:41 PM 33.5578 -89.4497 283° West 374 430 38,000  Level Memphis Center
Thu 05:14:41 PM 33.5817 -89.5742 283° West 379 436 38,000  Level Memphis Center
Thu 05:15:41 PM 33.6075 -89.6961 284° West 379 436 38,000  Level Memphis Center
Thu 05:16:41 PM 33.6331 -89.8183 284° West 379 436 38,000  Level Memphis Center
Thu 05:17:41 PM 33.6586 -89.9378 284° West 379 436 38,000  Level Memphis Center
Thu 05:18:41 PM 33.6861 -90.0575 285° West 374 430 38,000  Level Memphis Center
Thu 05:19:41 PM 33.7114 -90.1675 285° West 374 430 38,000  Level Memphis Center
Thu 05:20:41 PM 33.7386 -90.2847 286° West 374 430 38,000  Level Memphis Center
Thu 05:21:41 PM 33.7700 -90.4047 287° West 374 430 38,000  Level Memphis Center
Thu 05:22:41 PM 33.7864 -90.5272 279° West 379 436 38,000  Level Memphis Center
Thu 05:23:41 PM 33.7800 -90.6497 266° West 369 425 38,000  Level Memphis Center
Thu 05:24:42 PM 33.7733 -90.7769 266° West 369 425 38,000  Level Memphis Center
Thu 05:25:41 PM 33.7647 -90.8994 265° West 369 425 38,000  Level Memphis Center
Thu 05:26:41 PM 33.7556 -91.0217 265° West 369 425 38,000  Level Memphis Center
Thu 05:27:41 PM 33.7486 -91.1417 266° West 369 425 38,000  Level Memphis Center
Thu 05:28:41 PM 33.7375 -91.2639 264° West 369 425 38,000  Level Memphis Center
Thu 05:29:41 PM 33.7322 -91.3864 267° West 369 425 38,000  Level Memphis Center
Thu 05:31:15 PM 33.7186 -91.5806 265° West 370 426 38,000  Level Fort Worth Center
Thu 05:32:15 PM 33.7161 -91.7078 269° West 375 432 38,000  Level Fort Worth Center
Thu 05:33:15 PM 33.7031 -91.8361 263° West 380 437 38,000  Level Fort Worth Center
Thu 05:34:15 PM 33.6961 -91.9614 266° West 380 437 38,000  Level Fort Worth Center
Thu 05:35:15 PM 33.6828 -92.0869 263° West 385 443 38,000  Level Fort Worth Center
Thu 05:36:15 PM 33.6733 -92.2122 265° West 385 443 38,000  Level Fort Worth Center
Thu 05:37:15 PM 33.6636 -92.3350 265° West 385 443 38,000  Level Fort Worth Center
Thu 05:38:15 PM 33.6539 -92.4528 264° West 380 437 38,000  Level Fort Worth Center
Thu 05:39:15 PM 33.6481 -92.5756 267° West 368 423 38,000  Level Fort Worth Center
Thu 05:40:15 PM 33.6381 -92.6908 264° West 368 423 38,000  Level Fort Worth Center
Thu 05:41:15 PM 33.6278 -92.8111 264° West 368 423 38,000  Level Fort Worth Center
Thu 05:42:15 PM 33.6175 -92.9289 264° West 368 423 38,000  Level Fort Worth Center
Thu 05:43:15 PM 33.6069 -93.0467 264° West 368 423 38,000  Level Fort Worth Center
Thu 05:44:15 PM 33.5964 -93.1642 264° West 368 423 38,000  Level Fort Worth Center
Thu 05:45:27 PM 33.5858 -93.2844 264° West 368 423 38,000  Level Fort Worth Center
Thu 05:46:27 PM 33.5739 -93.4272 264° West 368 423 38,000  Level Fort Worth Center
Thu 05:52:33 PM 33.5157 -94.1737 264° West 365 420 38,000  Level FlightAware ADS-B
Thu 05:53:53 PM 33.5190 -94.3320 271° West 361 415 38,000  Level FlightAware ADS-B
Thu 05:54:13 PM 33.5195 -94.3745 271° West 364 419 38,000  Level FlightAware ADS-B
Thu 05:54:49 PM 33.5207 -94.4457 271° West 358 412 38,000  Level FlightAware ADS-B
Thu 05:55:22 PM 33.5218 -94.5111 271° West 357 411 38,000  Level FlightAware ADS-B
Thu 05:55:53 PM 33.5227 -94.5725 271° West 356 410 38,000  Level FlightAware ADS-B
Thu 05:56:35 PM 33.5240 -94.6550 271° West 356 410 38,000  Level FlightAware ADS-B
Thu 05:57:23 PM 33.5230 -94.7280 269° West 356 410 38,000  Level FlightAware ADS-B
Thu 05:58:08 PM 33.5270 -94.8340 273° West 355 409 38,000  Level FlightAware ADS-B
Thu 05:58:48 PM 33.5270 -94.9060 270° West 355 409 38,000  Level FlightAware ADS-B
Thu 05:59:28 PM 33.5280 -94.9860 271° West 356 410 38,000  Level FlightAware ADS-B
Thu 06:00:13 PM 33.5300 -95.0820 271° West 356 410 38,000  Level FlightAware ADS-B
Thu 06:00:48 PM 33.5300 -95.1480 270° West 357 411 38,000  Level FlightAware ADS-B
Thu 06:01:33 PM 33.5310 -95.2400 271° West 357 411 38,000  Level FlightAware ADS-B
Thu 06:02:18 PM 33.5320 -95.3290 271° West 357 411 38,000  Level FlightAware ADS-B
Thu 06:02:58 PM 33.5330 -95.4060 271° West 357 411 38,000  Level FlightAware ADS-B
Thu 06:03:43 PM 33.5340 -95.4950 271° West 356 410 38,000  Level FlightAware ADS-B
Thu 06:04:23 PM 33.5340 -95.5780 270° West 356 410 38,000  Level FlightAware ADS-B
Thu 06:05:08 PM 33.5350 -95.6630 271° West 355 409 38,000  Level FlightAware ADS-B
Thu 06:05:48 PM 33.5350 -95.7430 270° West 354 407 38,000  Level FlightAware ADS-B
Thu 06:06:28 PM 33.5360 -95.8220 271° West 352 405 38,000  Level FlightAware ADS-B
Thu 06:07:13 PM 33.5360 -95.9100 270° West 352 405 38,000  Level FlightAware ADS-B
Thu 06:07:53 PM 33.5370 -95.9840 271° West 351 404 38,000  Level FlightAware ADS-B
Thu 06:08:38 PM 33.5370 -96.0740 270° West 351 404 38,000  Level FlightAware ADS-B
Thu 06:09:18 PM 33.5370 -96.1530 270° West 352 405 38,000  Level FlightAware ADS-B
Thu 06:09:58 PM 33.5370 -96.2320 270° West 352 405 38,000  Level FlightAware ADS-B
Thu 06:10:43 PM 33.5380 -96.3200 271° West 351 404 38,000  Level FlightAware ADS-B
Thu 06:11:23 PM 33.5380 -96.3950 270° West 352 405 38,000  Level FlightAware ADS-B
Thu 06:12:01 PM 33.5387 -96.4751 271° West 351 404 38,000  Level FlightAware ADS-B
Thu 06:12:48 PM 33.5390 -96.5620 270° West 349 402 38,000  Level FlightAware ADS-B
Thu 06:13:28 PM 33.5390 -96.6427 270° West 350 403 38,000  Level FlightAware ADS-B
Thu 06:14:00 PM 33.5392 -96.7050 270° West 348 400 38,000  Level FlightAware ADS-B
Thu 06:14:33 PM 33.5392 -96.7675 270° West 349 402 38,000  Level FlightAware ADS-B
Thu 06:15:05 PM 33.5393 -96.8295 270° West 349 402 38,000  Level FlightAware ADS-B
Thu 06:15:36 PM 33.5394 -96.8912 270° West 351 404 38,000  Level FlightAware ADS-B
Thu 06:16:08 PM 33.5390 -96.9450 270° West 352 405 38,000  Level FlightAware ADS-B
Thu 06:16:58 PM 33.5390 -97.0430 270° West 354 407 38,000  Level FlightAware ADS-B
Thu 06:17:33 PM 33.5390 -97.1070 270° West 354 407 38,000  Level FlightAware ADS-B
Thu 06:18:13 PM 33.5390 -97.1900 270° West 356 410 38,000  Level FlightAware ADS-B
Thu 06:19:03 PM 33.5390 -97.2950 270° West 357 411 38,000  Level FlightAware ADS-B
Thu 06:19:48 PM 33.5380 -97.3820 269° West 360 414 38,000  Level FlightAware ADS-B
Thu 06:20:28 PM 33.5380 -97.4590 270° West 361 415 38,000  Level FlightAware ADS-B
Thu 06:21:13 PM 33.5380 -97.5470 270° West 362 417 38,000  Level FlightAware ADS-B
Thu 06:21:53 PM 33.5370 -97.6340 269° West 363 418 38,000  Level FlightAware ADS-B
Thu 06:22:38 PM 33.5370 -97.7240 270° West 364 419 38,000  Level FlightAware ADS-B
Thu 06:23:13 PM 33.5360 -97.7780 269° West 367 422 38,000  Level FlightAware ADS-B
Thu 06:23:58 PM 33.5420 -97.8840 274° West 369 425 38,000  Level FlightAware ADS-B
Thu 06:24:43 PM 33.5520 -97.9780 277° West 369 425 38,000  Level FlightAware ADS-B
Thu 06:25:23 PM 33.5600 -98.0510 278° West 371 427 38,000  Level FlightAware ADS-B
Thu 06:25:58 PM 33.5680 -98.1290 277° West 369 425 38,000  Level FlightAware ADS-B
Thu 06:27:03 PM 33.5820 -98.2620 277° West 368 423 38,000  Level FlightAware ADS-B
Thu 06:28:13 PM 33.5950 -98.3950 277° West 368 423 38,000  Level FlightAware ADS-B
Thu 06:28:53 PM 33.6010 -98.4640 276° West 368 423 38,000  Level FlightAware ADS-B
Thu 06:29:33 PM 33.6070 -98.5330 276° West 368 423 38,000  Level FlightAware ADS-B
Thu 06:30:13 PM 33.6130 -98.6020 276° West 368 423 38,000  Level FlightAware ADS-B
Thu 06:30:53 PM 33.6190 -98.6710 276° West 368 423 38,000  Level FlightAware ADS-B
Thu 06:31:43 PM 33.6270 -98.7580 276° West 368 423 38,000  Level FlightAware ADS-B
Thu 06:32:23 PM 33.6330 -98.8270 276° West 368 423 38,000  Level FlightAware ADS-B
Thu 06:33:03 PM 33.6390 -98.8960 276° West 368 423 38,000  Level FlightAware ADS-B
Thu 06:33:43 PM 33.6450 -98.9650 276° West 368 423 38,000  Level FlightAware ADS-B
Thu 06:34:23 PM 33.6510 -99.0340 276° West 368 423 38,000  Level FlightAware ADS-B
Thu 06:35:13 PM 33.6590 -99.1210 276° West 368 423 38,000  Level FlightAware ADS-B
Thu 06:35:53 PM 33.6650 -99.1900 276° West 368 423 38,000  Level FlightAware ADS-B
Thu 06:36:33 PM 33.6710 -99.2590 276° West 368 423 38,000  Level FlightAware ADS-B
Thu 06:37:13 PM 33.6770 -99.3280 276° West 368 423 38,000  Level FlightAware ADS-B
Thu 06:38:27 PM 33.7153 -99.6308 276° West 371 427 38,000  Level Fort Worth Center
Thu 06:39:27 PM 33.7278 -99.7511 277° West 371 427 38,000  Level Fort Worth Center
Thu 06:40:27 PM 33.7381 -99.8739 276° West 371 427 38,000  Level Fort Worth Center
Thu 06:41:27 PM 33.7481 -99.9939 276° West 371 427 38,000  Level Fort Worth Center
Thu 06:42:27 PM 33.7600 -100.1192 277° West 371 427 38,000  Level Fort Worth Center
Thu 06:43:27 PM 33.7719 -100.2394 277° West 371 427 38,000  Level Fort Worth Center
Thu 06:44:27 PM 33.7839 -100.3625 277° West 371 427 38,000  Level Fort Worth Center
Thu 06:45:27 PM 33.7975 -100.4903 277° West 377 434 38,000  Level Fort Worth Center
Thu 06:46:27 PM 33.8150 -100.6158 280° West 377 434 38,000  Level Fort Worth Center
Thu 06:47:27 PM 33.8306 -100.7389 279° West 382 440 38,000  Level Fort Worth Center
Thu 06:48:27 PM 33.8503 -100.8597 281° West 377 434 38,000  Level Fort Worth Center
Thu 06:49:27 PM 33.8636 -100.9853 277° West 377 434 38,000  Level Fort Worth Center
Thu 06:50:27 PM 33.8806 -101.1211 279° West 377 434 38,000  Level Fort Worth Center
Thu 06:51:27 PM 33.8975 -101.2494 279° West 372 428 38,000  Level Fort Worth Center
Thu 06:52:27 PM 33.9125 -101.3728 278° West 372 428 38,000  Level Fort Worth Center
Thu 06:53:27 PM 33.9272 -101.4986 278° West 379 436 38,000  Level Fort Worth Center
Thu 06:54:27 PM 33.9439 -101.6219 279° West 379 436 38,000  Level Fort Worth Center
Thu 06:55:27 PM 33.9561 -101.7503 277° West 379 436 38,000  Level Fort Worth Center
Thu 06:56:27 PM 33.9747 -101.8789 280° West 389 448 38,000  Level Fort Worth Center
Thu 06:57:27 PM 33.9889 -102.0050 278° West 391 450 38,000  Level Fort Worth Center
Thu 06:58:27 PM 34.0028 -102.1333 277° West 391 450 38,000  Level Fort Worth Center
Thu 07:00:08 PM 34.0281 -102.3458 278° West 386 444 38,000  Level Albuquerque Center
Thu 07:01:10 PM 34.0433 -102.4761 278° West 390 449 38,000  Level Albuquerque Center
Thu 07:02:12 PM 34.0586 -102.6072 278° West 394 453 38,000  Level Albuquerque Center
Thu 07:03:14 PM 34.0736 -102.7369 278° West 394 453 38,000  Level Albuquerque Center
Thu 07:04:16 PM 34.0883 -102.8656 278° West 390 449 38,000  Level Albuquerque Center
Thu 07:05:18 PM 34.1025 -102.9950 278° West 390 449 38,000  Level Albuquerque Center
Thu 07:06:20 PM 34.1192 -103.1478 278° West 387 445 38,000  Level Albuquerque Center
Thu 07:07:22 PM 34.1331 -103.2758 278° West 387 445 38,000  Level Albuquerque Center
Thu 07:08:24 PM 34.1467 -103.4025 277° West 384 442 38,000  Level Albuquerque Center
Thu 07:09:26 PM 34.1600 -103.5308 277° West 385 443 38,000  Level Albuquerque Center
Thu 07:10:28 PM 34.1747 -103.6747 277° West 385 443 38,000  Level Albuquerque Center
Thu 07:11:30 PM 34.1875 -103.8047 277° West 384 442 38,000  Level Albuquerque Center
Thu 07:12:32 PM 34.2014 -103.9375 277° West 390 449 38,000  Level Albuquerque Center
Thu 07:13:34 PM 34.2156 -104.0717 277° West 395 455 38,000  Level Albuquerque Center
Thu 07:14:36 PM 34.2286 -104.2072 277° West 399 459 38,000  Level Albuquerque Center
Thu 07:15:37 PM 34.2417 -104.3442 277° West 404 465 38,000  Level Albuquerque Center
Thu 07:16:39 PM 34.2556 -104.4806 277° West 405 466 38,000  Level Albuquerque Center
Thu 07:17:41 PM 34.2717 -104.6403 277° West 405 466 38,000  Level Albuquerque Center
Thu 07:18:43 PM 34.2847 -104.7767 277° West 406 467 38,000  Level Albuquerque Center
Thu 07:19:45 PM 34.2975 -104.9097 277° West 399 459 38,000  Level Albuquerque Center
Thu 07:25:08 PM 34.3620 -105.6240 277° West 397 457 38,000  Level FlightAware ADS-B
Thu 07:25:48 PM 34.3690 -105.7000 276° West 398 458 38,000  Level FlightAware ADS-B
Thu 07:26:33 PM 34.3710 -105.8060 271° West 397 457 38,000  Level FlightAware ADS-B
Thu 07:27:13 PM 34.3740 -105.8970 272° West 401 461 38,000  Level FlightAware ADS-B
Thu 07:27:58 PM 34.3760 -106.0000 271° West 401 461 38,000  Level FlightAware ADS-B
Thu 07:28:38 PM 34.3790 -106.0840 273° West 402 463 38,000  Level FlightAware ADS-B
Thu 07:29:18 PM 34.3810 -106.1760 272° West 398 458 38,000 75 Level FlightAware ADS-B
Thu 07:29:58 PM 34.3840 -106.2680 272° West 397 457 38,100  Climbing FlightAware ADS-B
Thu 07:30:38 PM 34.3860 -106.3610 272° West 399 459 38,000 -71 Descending FlightAware ADS-B
Thu 07:31:23 PM 34.3880 -106.4600 271° West 400 460 38,000  Level FlightAware ADS-B
Thu 07:32:08 PM 34.3910 -106.5640 272° West 405 466 38,000  Level FlightAware ADS-B
Thu 07:33:03 PM 34.3940 -106.6860 272° West 407 468 38,000  Level FlightAware ADS-B
Thu 07:33:43 PM 34.3960 -106.7760 272° West 404 465 38,000  Level FlightAware ADS-B
Thu 07:34:28 PM 34.3980 -106.8800 271° West 401 461 38,000  Level FlightAware ADS-B
Thu 07:35:08 PM 34.4000 -106.9710 272° West 400 460 38,000  Level FlightAware ADS-B
Thu 07:35:53 PM 34.4020 -107.0710 271° West 399 459 38,000  Level FlightAware ADS-B
Thu 07:36:33 PM 34.4030 -107.1590 271° West 399 459 38,000  Level FlightAware ADS-B
Thu 07:37:18 PM 34.4050 -107.2580 271° West 398 458 38,000  Level FlightAware ADS-B
Thu 07:37:58 PM 34.4070 -107.3490 272° West 399 459 38,000  Level FlightAware ADS-B
Thu 07:38:38 PM 34.4080 -107.4370 271° West 401 461 38,000  Level FlightAware ADS-B
Thu 07:39:23 PM 34.4100 -107.5370 271° West 403 464 38,000  Level FlightAware ADS-B
Thu 07:40:03 PM 34.4110 -107.6280 271° West 403 464 38,000  Level FlightAware ADS-B
Thu 07:41:18 PM 34.4140 -107.8010 271° West 404 465 38,000  Level FlightAware ADS-B
Thu 07:41:53 PM 34.4140 -107.8700 270° West 404 465 38,000  Level FlightAware ADS-B
Thu 07:42:43 PM 34.4160 -107.9880 271° West 405 466 38,000  Level FlightAware ADS-B
Thu 07:43:23 PM 34.4160 -108.0730 270° West 405 466 38,000  Level FlightAware ADS-B
Thu 07:44:03 PM 34.4180 -108.1740 271° West 409 471 38,000  Level FlightAware ADS-B
Thu 07:44:43 PM 34.4190 -108.2650 271° West 409 471 38,000  Level FlightAware ADS-B
Thu 07:45:28 PM 34.4200 -108.3700 271° West 411 473 38,000  Level FlightAware ADS-B
Thu 07:46:08 PM 34.4210 -108.4640 271° West 413 475 38,000  Level FlightAware ADS-B
Thu 07:46:53 PM 34.4210 -108.5640 270° West 414 476 38,000  Level FlightAware ADS-B
Thu 07:47:33 PM 34.4220 -108.6560 271° West 414 476 38,000  Level FlightAware ADS-B
Thu 07:48:18 PM 34.4230 -108.7630 271° West 414 476 38,000  Level FlightAware ADS-B
Thu 07:48:58 PM 34.4230 -108.8580 270° West 414 476 38,000  Level FlightAware ADS-B
Thu 07:50:08 PM 34.4230 -109.0090 270° West 415 478 38,000  Level FlightAware ADS-B
Thu 07:50:48 PM 34.4230 -109.0880 270° West 415 478 38,000  Level FlightAware ADS-B
Thu 07:51:28 PM 34.4230 -109.1670 270° West 415 478 38,000  Level FlightAware ADS-B
Thu 07:52:08 PM 34.4230 -109.2460 270° West 415 478 38,000  Level FlightAware ADS-B
Thu 07:52:58 PM 34.4230 -109.3450 270° West 415 478 38,000  Level FlightAware ADS-B
Thu 07:53:38 PM 34.4230 -109.4240 270° West 415 478 38,000  Level FlightAware ADS-B
Thu 07:54:18 PM 34.4230 -109.5040 270° West 415 478 38,000  Level FlightAware ADS-B
Thu 07:54:58 PM 34.4230 -109.5830 270° West 415 478 38,000  Level FlightAware ADS-B
Thu 07:55:38 PM 34.4230 -109.6620 270° West 415 478 38,000  Level FlightAware ADS-B
Thu 07:56:28 PM 34.4230 -109.7610 270° West 415 478 38,000  Level FlightAware ADS-B
Thu 07:57:08 PM 34.4230 -109.8400 270° West 415 478 38,000  Level FlightAware ADS-B
Thu 07:57:48 PM 34.4230 -109.9190 270° West 415 478 38,000  Level FlightAware ADS-B
Thu 07:58:28 PM 34.4230 -109.9980 270° West 415 478 38,000  Level FlightAware ADS-B
Thu 07:59:08 PM 34.4230 -110.0770 270° West 415 478 38,000  Level FlightAware ADS-B
Thu 08:01:23 PM 34.3890 -110.5260 265° West 38,000  Level FlightAware ADS-B
Thu 08:02:38 PM 34.3830 -110.7100 268° West 410 472 38,000  Level FlightAware ADS-B
Thu 08:03:23 PM 34.3790 -110.8100 267° West 411 473 38,000  Level FlightAware ADS-B
Thu 08:04:03 PM 34.3760 -110.9030 268° West 411 473 38,000  Level FlightAware ADS-B
Thu 08:04:48 PM 34.3730 -111.0060 268° West 411 473 38,000  Level FlightAware ADS-B
Thu 08:05:23 PM 34.3700 -111.0930 268° West 410 472 38,000  Level FlightAware ADS-B
Thu 08:06:08 PM 34.3660 -111.2000 267° West 410 472 38,000  Level FlightAware ADS-B
Thu 08:07:03 PM 34.3610 -111.3370 268° West 408 470 38,000  Level FlightAware ADS-B
Thu 08:07:53 PM 34.3320 -111.4630 254° West 412 474 38,000  Level FlightAware ADS-B
Thu 08:08:33 PM 34.3530 -111.5410 288° West 408 470 38,000  Level FlightAware ADS-B
Thu 08:09:13 PM 34.3490 -111.6370 267° West 409 471 38,000  Level FlightAware ADS-B
Thu 08:09:58 PM 34.3450 -111.7370 267° West 409 471 38,000  Level FlightAware ADS-B
Thu 08:10:38 PM 34.3170 -111.8410 252° West 413 475 38,000  Level FlightAware ADS-B
Thu 08:11:23 PM 34.3370 -111.9340 285° West 409 471 38,000  Level FlightAware ADS-B
Thu 08:12:03 PM 34.3330 -112.0080 266° West 409 471 38,000  Level FlightAware ADS-B
Thu 08:12:43 PM 34.3290 -112.0970 267° West 410 472 38,000  Level FlightAware ADS-B
Thu 08:13:28 PM 34.3250 -112.1950 267° West 410 472 38,000  Level FlightAware ADS-B
Thu 08:14:18 PM 34.2950 -112.3320 255° West 414 476 38,000  Level FlightAware ADS-B
Thu 08:15:03 PM 34.3140 -112.4370 282° West 411 473 38,000  Level FlightAware ADS-B
Thu 08:15:48 PM 34.3090 -112.5370 267° West 409 471 38,000  Level FlightAware ADS-B
Thu 08:16:28 PM 34.3050 -112.6310 267° West 409 471 38,000  Level FlightAware ADS-B
Thu 08:17:13 PM 34.3000 -112.7330 267° West 409 471 38,000  Level FlightAware ADS-B
Thu 08:17:53 PM 34.2950 -112.8280 266° West 408 470 38,000  Level FlightAware ADS-B
Thu 08:18:38 PM 34.2900 -112.9280 267° West 409 471 38,000  Level FlightAware ADS-B
Thu 08:19:18 PM 34.2850 -113.0210 266° West 409 471 38,000  Level FlightAware ADS-B
Thu 08:19:53 PM 34.2810 -113.0960 266° West 408 470 38,000  Level FlightAware ADS-B
Thu 08:20:53 PM 34.2740 -113.2300 266° West 409 471 38,000  Level FlightAware ADS-B
Thu 08:21:28 PM 34.2710 -113.2880 266° West 410 472 38,000  Level FlightAware ADS-B
Thu 08:22:18 PM 34.2630 -113.4340 266° West 412 474 38,000  Level FlightAware ADS-B
Thu 08:22:58 PM 34.2580 -113.5230 266° West 411 473 38,000  Level FlightAware ADS-B
Thu 08:23:53 PM 34.2510 -113.6500 266° West 412 474 38,000  Level FlightAware ADS-B
Thu 08:24:38 PM 34.2250 -113.7610 254° West 417 480 38,000  Level FlightAware ADS-B
Thu 08:25:18 PM 34.2410 -113.8250 287° West 415 478 38,000  Level FlightAware ADS-B
Thu 08:26:03 PM 34.2350 -113.9250 266° West 415 478 38,000  Level FlightAware ADS-B
Thu 08:26:38 PM 34.2300 -114.0090 266° West 416 479 38,000  Level FlightAware ADS-B
Thu 08:27:23 PM 34.2230 -114.1250 266° West 417 480 38,000  Level FlightAware ADS-B
Thu 08:28:08 PM 34.2160 -114.2420 266° West 416 479 38,000  Level FlightAware ADS-B
Thu 08:28:48 PM 34.2100 -114.3370 266° West 415 478 38,000  Level FlightAware ADS-B
Thu 08:29:28 PM 34.2050 -114.4040 265° West 415 478 38,000  Level FlightAware ADS-B
Thu 08:30:28 PM 34.1880 -114.5320 261° West 416 479 38,000  Level FlightAware ADS-B
Thu 08:31:13 PM 34.1700 -114.6380 258° West 417 480 38,000  Level FlightAware ADS-B
Thu 08:32:08 PM 34.1470 -114.7730 258° West 418 481 38,000  Level FlightAware ADS-B
Thu 08:32:48 PM 34.1340 -114.8510 259° West 418 481 38,000  Level FlightAware ADS-B
Thu 08:33:28 PM 34.1200 -114.9280 258° West 418 481 38,000  Level FlightAware ADS-B
Thu 08:34:08 PM 34.1060 -115.0060 258° West 418 481 38,000  Level FlightAware ADS-B
Thu 08:34:48 PM 34.0930 -115.0840 259° West 418 481 38,000  Level FlightAware ADS-B
Thu 08:35:28 PM 34.0790 -115.1610 258° West 418 481 38,000 -1,333 Level FlightAware ADS-B
Thu 08:36:18 PM 34.0480 -115.3840 261° West 434 499 36,000 -1,333 Descending FlightAware ADS-B
Thu 08:36:58 PM 34.0330 -115.4780 259° West 433 498 36,000  Level FlightAware ADS-B
Thu 08:37:43 PM 34.0140 -115.5880 258° West 432 497 36,000  Level FlightAware ADS-B
Thu 08:38:23 PM 33.9990 -115.6780 259° West 431 496 36,000 -225 Level FlightAware ADS-B
Thu 08:39:03 PM 33.9830 -115.7700 258° West 430 495 35,700 -1,835 Descending FlightAware ADS-B
Thu 08:39:48 PM 33.9650 -115.8800 259° West 430 495 33,400 -2,824 Descending FlightAware ADS-B
Thu 08:40:28 PM 33.9520 -115.9730 260° West 414 476 31,700 -3,075 Descending FlightAware ADS-B
Thu 08:41:08 PM 33.9370 -116.0970 262° West 406 467 29,300 -4,024 Descending FlightAware ADS-B
Thu 08:41:53 PM 33.9420 -116.1700 275° West 423 487 26,000 -3,741 Descending FlightAware ADS-B
Thu 08:42:33 PM 33.9350 -116.2620 265° West 419 482 24,000 -2,824 Descending FlightAware ADS-B
Thu 08:43:18 PM 33.9270 -116.3680 265° West 409 471 22,000 -2,612 Descending FlightAware ADS-B
Thu 08:43:58 PM 33.9200 -116.4570 265° West 399 459 20,300 -2,475 Descending FlightAware ADS-B
Thu 08:44:38 PM 33.9130 -116.5450 265° West 391 450 18,700 -2,329 Descending FlightAware ADS-B
Thu 08:45:23 PM 33.9060 -116.6410 265° West 382 440 17,000 -2,118 Descending FlightAware ADS-B
Thu 08:46:03 PM 33.8990 -116.7250 264° West 362 417 15,700 -1,867 Descending FlightAware ADS-B
Thu 08:46:53 PM 33.8920 -116.8130 265° West 323 372 14,200 -1,733 Descending FlightAware ADS-B
Thu 08:47:33 PM 33.9010 -116.8820 279° West 280 322 13,100 -2,100 Descending FlightAware ADS-B
Thu 08:48:13 PM 33.9190 -116.9410 290° West 283 326 11,400 -2,188 Descending FlightAware ADS-B
Thu 08:48:58 PM 33.9410 -117.0090 291° West 280 322 10,000 -1,714 Descending FlightAware ADS-B
Thu 08:49:23 PM 33.9530 -117.0440 292° West 278 320 9,400 -1,527 Descending FlightAware ADS-B
Thu 08:49:53 PM 33.9660 -117.0860 290° West 254 292 8,600 -1,600 Descending FlightAware ADS-B
Thu 08:50:23 PM 33.9790 -117.1240 292° West 233 268 7,800 -1,527 Descending FlightAware ADS-B
Thu 08:50:48 PM 33.9880 -117.1540 290° West 234 269 7,200 -1,309 Descending FlightAware ADS-B
Thu 08:51:18 PM 34.0010 -117.1920 292° West 233 268 6,600 -1,200 Descending FlightAware ADS-B
Thu 08:51:43 PM 34.0100 -117.2210 291° West 231 266 6,100 -1,067 Descending FlightAware ADS-B
Thu 08:52:03 PM 34.0170 -117.2440 290° West 224 258 5,800 -900 Descending FlightAware ADS-B
Thu 08:52:43 PM 34.0330 -117.2910 292° West 223 257 5,200 -1,015 Descending FlightAware ADS-B
Thu 08:53:08 PM 34.0420 -117.3210 290° West 224 258 4,700 -982 Descending FlightAware ADS-B
Thu 08:53:38 PM 34.0530 -117.3570 290° West 223 257 4,300 -800 Descending FlightAware ADS-B
Thu 08:53:53 PM 34.0550 -117.3740 278° West 225 259 4,100 -1,050 Descending FlightAware ADS-B
Thu 08:54:18 PM 34.0550 -117.4050 270° West 229 264 3,600 -1,200 Descending FlightAware ADS-B
Thu 08:54:48 PM 34.0550 -117.4430 270° West 208 239 3,000 -1,091 Descending FlightAware ADS-B
Thu 08:55:13 PM 34.0550 -117.4660 270° West 185 213 2,600 -600 Descending FlightAware ADS-B
Thu 08:55:48 PM 34.0550 -117.4990 270° West 170 196 2,400 -610 Descending FlightAware ADS-B
Thu 08:56:12 PM 34.0500 -117.5167 270° West 145 167 2,000 -786 Descending Southern California TRACON
Thu 08:57:12 PM 34.0500 -117.5667 270° West 137 158 1,300 -700 Descending Southern California TRACON
Thu 08:59:00 PM 34.0500 -117.6000 275° West  Level FlightAware Approximate
Thu 09:06:00 PM 34.0560 -117.6012 275° West  Level Estimated

Login

Don't have an account? Register now (free) for customized features, flight alerts, and more!